createdAt,value
2023-05-14T00:01:20.570Z,12.26
2023-05-14T00:03:47.565Z,12.27
2023-05-14T00:06:15.219Z,12.26
2023-05-14T00:08:42.154Z,12.41
2023-05-14T00:11:12.030Z,12.22
2023-05-14T00:13:38.923Z,12.07
2023-05-14T00:16:06.030Z,12.06
2023-05-14T00:18:33.375Z,12.07
2023-05-14T00:21:00.331Z,11.93
2023-05-14T00:23:27.133Z,11.80
2023-05-14T00:25:53.978Z,11.84
2023-05-14T00:28:21.148Z,11.83
2023-05-14T00:30:48.681Z,11.99
2023-05-14T00:33:16.115Z,11.99
2023-05-14T00:35:43.426Z,12.09
2023-05-14T00:38:16.936Z,12.21
2023-05-14T00:40:46.002Z,12.01
2023-05-14T00:43:12.978Z,12.01
2023-05-14T00:45:39.842Z,11.90
2023-05-14T00:48:07.337Z,11.63
2023-05-14T00:50:34.753Z,11.78
2023-05-14T00:53:01.659Z,11.69
2023-05-14T00:55:30.965Z,11.56
2023-05-14T00:57:58.182Z,11.52
2023-05-14T01:00:25.277Z,11.84
2023-05-14T01:02:52.359Z,11.79
2023-05-14T01:05:19.391Z,11.63
2023-05-14T01:08:03.053Z,11.66
2023-05-14T01:10:39.035Z,11.62
2023-05-14T01:13:22.673Z,11.39
2023-05-14T01:15:49.758Z,11.23
2023-05-14T01:18:19.413Z,11.37
2023-05-14T01:20:46.586Z,11.43
2023-05-14T01:23:13.533Z,11.23
2023-05-14T01:25:41.136Z,11.15
2023-05-14T01:28:26.674Z,11.12
2023-05-14T01:31:08.631Z,11.17
2023-05-14T01:33:37.126Z,11.01
2023-05-14T01:36:04.775Z,10.94
2023-05-14T01:38:34.156Z,11.02
2023-05-14T01:41:02.195Z,10.96
2023-05-14T01:43:30.092Z,11.08
2023-05-14T01:45:57.024Z,11.29
2023-05-14T01:48:25.261Z,11.32
2023-05-14T01:50:52.511Z,11.27
2023-05-14T01:53:19.338Z,11.17
2023-05-14T01:55:46.258Z,11.38
2023-05-14T01:58:13.124Z,11.41
2023-05-14T02:00:40.015Z,11.43
2023-05-14T02:03:06.861Z,11.45
2023-05-14T02:05:34.202Z,11.43
2023-05-14T02:08:01.181Z,11.36
2023-05-14T02:10:28.326Z,11.45
2023-05-14T02:12:56.417Z,11.48
2023-05-14T02:15:23.241Z,11.35
2023-05-14T02:17:50.260Z,11.47
2023-05-14T02:20:17.223Z,11.44
2023-05-14T02:22:46.169Z,11.52
2023-05-14T02:25:13.165Z,11.40
2023-05-14T02:27:40.281Z,11.50
2023-05-14T02:30:07.971Z,11.53
2023-05-14T02:32:34.940Z,11.64
2023-05-14T02:35:02.066Z,11.71
2023-05-14T02:37:29.031Z,11.77
2023-05-14T02:39:55.853Z,11.60
2023-05-14T02:42:22.778Z,11.51
2023-05-14T02:44:49.901Z,11.60
2023-05-14T02:47:16.824Z,11.64
2023-05-14T02:49:43.701Z,11.67
2023-05-14T02:52:10.511Z,11.50
2023-05-14T02:54:37.349Z,11.59
2023-05-14T02:57:04.288Z,11.69
2023-05-14T02:59:31.736Z,11.51
2023-05-14T03:01:59.249Z,11.43
2023-05-14T03:04:26.636Z,11.39
2023-05-14T03:06:53.497Z,11.52
2023-05-14T03:09:20.333Z,11.49
2023-05-14T03:11:47.422Z,11.73
2023-05-14T03:14:14.275Z,11.41
2023-05-14T03:16:42.378Z,11.54
2023-05-14T03:19:10.019Z,11.29
2023-05-14T03:21:37.196Z,11.16
2023-05-14T03:24:04.208Z,11.31
2023-05-14T03:26:31.087Z,11.48
2023-05-14T03:28:58.019Z,10.94
2023-05-14T03:31:24.964Z,11.00
2023-05-14T03:33:52.186Z,11.14
2023-05-14T03:36:19.067Z,11.39
2023-05-14T03:38:47.790Z,11.44
2023-05-14T03:41:15.382Z,11.75
2023-05-14T03:43:42.698Z,11.84
2023-05-14T03:46:09.615Z,11.99
2023-05-14T03:48:36.852Z,12.02
2023-05-14T03:51:05.032Z,11.89
2023-05-14T03:53:31.852Z,11.97
2023-05-14T03:55:58.682Z,12.07
2023-05-14T03:58:26.083Z,12.12
2023-05-14T04:00:53.741Z,12.08
2023-05-14T04:03:20.970Z,11.91
2023-05-14T04:05:47.853Z,12.05
2023-05-14T04:08:14.638Z,12.16
2023-05-14T04:10:43.023Z,12.30
2023-05-14T04:13:09.814Z,12.46
2023-05-14T04:15:39.469Z,12.66
2023-05-14T04:18:06.473Z,12.61
2023-05-14T04:20:33.460Z,12.74
2023-05-14T04:23:00.323Z,12.86
2023-05-14T04:25:27.352Z,12.96
2023-05-14T04:27:54.243Z,12.96
2023-05-14T04:30:21.436Z,13.01
2023-05-14T04:32:48.656Z,12.96
2023-05-14T04:35:15.696Z,13.09
2023-05-14T04:37:42.552Z,13.19
2023-05-14T04:40:12.738Z,13.31
2023-05-14T04:42:39.548Z,13.36
2023-05-14T04:45:06.946Z,13.48
2023-05-14T04:47:35.090Z,13.39
2023-05-14T04:50:02.581Z,13.67
2023-05-14T04:52:29.444Z,13.68
2023-05-14T04:54:57.015Z,13.89
2023-05-14T04:57:23.856Z,13.85
2023-05-14T04:59:50.767Z,13.90
2023-05-14T05:02:17.681Z,14.07
2023-05-14T05:04:47.240Z,14.21
2023-05-14T05:07:14.675Z,14.45
2023-05-14T05:09:43.123Z,14.62
2023-05-14T05:12:10.135Z,14.83
2023-05-14T05:14:36.967Z,14.81
2023-05-14T05:17:04.006Z,14.87
2023-05-14T05:19:42.404Z,14.98
2023-05-14T05:22:10.550Z,14.93
2023-05-14T05:24:37.405Z,14.78
2023-05-14T05:27:05.580Z,15.21
2023-05-14T05:29:32.436Z,15.41
2023-05-14T05:31:59.485Z,15.35
2023-05-14T05:34:26.554Z,15.40
2023-05-14T05:36:53.320Z,15.54
2023-05-14T05:39:20.111Z,15.30
2023-05-14T05:41:47.018Z,15.48
2023-05-14T05:44:13.789Z,15.50
2023-05-14T05:46:40.677Z,15.67
2023-05-14T05:49:07.717Z,15.65
2023-05-14T05:51:34.615Z,15.86
2023-05-14T05:54:01.386Z,15.68
2023-05-14T05:56:28.560Z,15.68
2023-05-14T05:58:55.389Z,15.70
2023-05-14T06:01:22.629Z,15.84
2023-05-14T06:03:49.450Z,16.05
2023-05-14T06:06:16.240Z,16.10
2023-05-14T06:08:42.997Z,16.49
2023-05-14T06:11:09.831Z,16.52
2023-05-14T06:13:36.632Z,16.61
2023-05-14T06:16:03.743Z,16.73
2023-05-14T06:18:30.816Z,16.90
2023-05-14T06:21:00.194Z,16.91
2023-05-14T06:23:27.192Z,17.17
2023-05-14T06:25:54.260Z,16.72
2023-05-14T06:28:21.145Z,16.64
2023-05-14T06:30:50.428Z,16.74
2023-05-14T06:33:19.340Z,16.88
2023-05-14T06:35:47.495Z,16.96
2023-05-14T06:38:14.394Z,17.10
2023-05-14T06:40:41.232Z,17.30
2023-05-14T06:43:08.090Z,17.24
2023-05-14T06:45:35.182Z,17.05
2023-05-14T06:48:02.070Z,16.88
2023-05-14T06:50:28.947Z,16.90
2023-05-14T06:52:55.770Z,17.07
2023-05-14T06:55:22.750Z,16.99
2023-05-14T06:57:50.710Z,16.99
2023-05-14T07:00:17.940Z,16.88
2023-05-14T07:02:44.841Z,16.87
2023-05-14T07:05:11.802Z,17.02
2023-05-14T07:07:38.717Z,16.93
2023-05-14T07:10:06.580Z,17.05
2023-05-14T07:12:33.422Z,17.07
2023-05-14T07:15:00.196Z,16.87
2023-05-14T07:17:27.251Z,17.06
2023-05-14T07:19:56.021Z,16.86
2023-05-14T07:22:22.850Z,16.94
2023-05-14T07:24:50.297Z,16.82
2023-05-14T07:27:17.392Z,17.03
2023-05-14T07:29:44.603Z,17.17
2023-05-14T07:32:12.807Z,17.00
2023-05-14T07:34:41.608Z,17.15
2023-05-14T07:37:08.805Z,17.20
2023-05-14T07:39:36.065Z,17.27
2023-05-14T07:42:02.976Z,17.34
2023-05-14T07:44:29.815Z,17.40
2023-05-14T07:46:56.742Z,17.32
2023-05-14T07:49:23.562Z,17.44
2023-05-14T07:51:50.409Z,17.26
2023-05-14T07:54:17.323Z,17.41
2023-05-14T07:56:44.589Z,17.25
2023-05-14T07:59:11.405Z,17.25
2023-05-14T08:01:39.456Z,17.09
2023-05-14T08:04:06.537Z,16.93
2023-05-14T08:06:34.118Z,17.26
2023-05-14T08:09:00.989Z,17.41
2023-05-14T08:11:27.880Z,17.33
2023-05-14T08:13:54.771Z,17.35
2023-05-14T08:16:22.460Z,17.33
2023-05-14T08:18:49.499Z,17.22
2023-05-14T08:21:16.345Z,17.31
2023-05-14T08:23:43.479Z,17.49
2023-05-14T08:26:10.380Z,17.73
2023-05-14T08:28:37.218Z,17.52
2023-05-14T08:31:04.237Z,17.65
2023-05-14T08:33:31.119Z,17.68
2023-05-14T08:36:00.612Z,17.62
2023-05-14T08:38:27.508Z,17.62
2023-05-14T08:40:58.496Z,17.80
2023-05-14T08:44:04.499Z,17.81
2023-05-14T08:46:32.541Z,18.11
2023-05-14T08:49:11.392Z,18.28
2023-05-14T08:51:38.793Z,18.15
2023-05-14T08:54:05.985Z,18.29
2023-05-14T08:56:33.679Z,18.29
2023-05-14T08:59:00.925Z,18.52
2023-05-14T09:01:29.080Z,18.62
2023-05-14T09:03:56.797Z,18.90
2023-05-14T09:06:24.478Z,18.81
2023-05-14T09:08:51.729Z,18.54
2023-05-14T09:11:18.617Z,18.14
2023-05-14T09:13:45.410Z,18.15
2023-05-14T09:16:12.293Z,18.22
2023-05-14T09:18:45.007Z,18.30
2023-05-14T09:21:17.804Z,18.10
2023-05-14T09:23:45.212Z,17.75
2023-05-14T09:26:12.676Z,17.83
2023-05-14T09:28:43.763Z,17.86
2023-05-14T09:31:10.718Z,17.91
2023-05-14T09:33:37.638Z,17.90
2023-05-14T09:36:04.629Z,17.76
2023-05-14T09:38:32.905Z,17.69
2023-05-14T09:41:00.853Z,17.69
2023-05-14T09:43:27.770Z,17.63
2023-05-14T09:45:54.609Z,17.53
2023-05-14T09:48:22.553Z,17.58
2023-05-14T09:50:49.732Z,17.51
2023-05-14T09:53:17.900Z,17.52
2023-05-14T09:55:45.755Z,17.40
2023-05-14T09:58:16.034Z,17.42
2023-05-14T10:00:47.970Z,17.37
2023-05-14T10:03:17.927Z,17.43
2023-05-14T10:05:49.657Z,17.43
2023-05-14T10:08:25.687Z,17.33
2023-05-14T10:10:54.600Z,17.46
2023-05-14T10:13:28.161Z,17.47
2023-05-14T10:16:05.484Z,17.33
2023-05-14T10:18:41.406Z,17.59
2023-05-14T10:21:11.756Z,17.63
2023-05-14T10:23:40.558Z,17.59
2023-05-14T10:26:08.964Z,17.72
2023-05-14T10:28:36.616Z,17.90
2023-05-14T10:31:03.868Z,18.00
2023-05-14T10:33:30.959Z,18.16
2023-05-14T10:36:05.967Z,18.51
2023-05-14T10:38:35.726Z,18.50
2023-05-14T10:41:10.087Z,18.53
2023-05-14T10:43:38.701Z,18.83
2023-05-14T10:46:06.786Z,19.03
2023-05-14T10:48:44.589Z,19.49
2023-05-14T10:51:12.283Z,19.44
2023-05-14T10:53:41.516Z,19.66
2023-05-14T10:56:10.216Z,19.55
2023-05-14T10:58:38.606Z,19.54
2023-05-14T11:01:10.972Z,19.75
2023-05-14T11:03:46.416Z,19.54
2023-05-14T11:06:16.469Z,19.34
2023-05-14T11:08:44.679Z,19.27
2023-05-14T11:11:12.607Z,18.89
2023-05-14T11:13:39.594Z,18.90
2023-05-14T11:18:41.913Z,18.91
2023-05-14T11:21:09.019Z,19.16
2023-05-14T11:23:36.332Z,18.97
2023-05-14T11:26:03.390Z,19.03
2023-05-14T11:28:30.486Z,19.02
2023-05-14T11:30:57.373Z,18.84
2023-05-14T11:33:24.136Z,18.87
2023-05-14T11:35:52.130Z,18.81
2023-05-14T11:38:20.568Z,18.95
2023-05-14T11:40:57.262Z,18.79
2023-05-14T11:43:24.449Z,18.56
2023-05-14T11:45:52.681Z,19.03
2023-05-14T11:48:24.068Z,19.10
2023-05-14T11:50:52.288Z,19.07
2023-05-14T11:53:20.177Z,19.22
2023-05-14T11:55:47.829Z,19.07
2023-05-14T11:58:15.951Z,19.29
2023-05-14T12:00:45.634Z,19.23
2023-05-14T12:03:12.764Z,18.98
2023-05-14T12:05:40.232Z,18.98
2023-05-14T12:08:26.281Z,19.02
2023-05-14T12:10:54.426Z,19.04
2023-05-14T12:13:21.449Z,19.38
2023-05-14T12:15:59.394Z,19.26
2023-05-14T12:18:28.491Z,19.37
2023-05-14T12:20:55.909Z,19.53
2023-05-14T12:23:32.725Z,19.43
2023-05-14T12:26:06.273Z,19.47
2023-05-14T12:28:35.996Z,19.04
2023-05-14T12:31:04.736Z,19.20
2023-05-14T12:33:31.586Z,19.02
2023-05-14T12:36:10.045Z,18.77
2023-05-14T12:38:47.160Z,18.76
2023-05-14T12:41:14.031Z,18.64
2023-05-14T12:43:44.372Z,18.69
2023-05-14T12:46:11.317Z,18.54
2023-05-14T12:48:38.112Z,18.48
2023-05-14T12:51:05.020Z,18.48
2023-05-14T12:53:31.815Z,18.40
2023-05-14T12:55:58.744Z,18.32
2023-05-14T12:58:25.742Z,18.28
2023-05-14T13:00:52.563Z,18.24
2023-05-14T13:03:19.583Z,18.30
2023-05-14T13:05:46.538Z,18.28
2023-05-14T13:08:17.775Z,18.38
2023-05-14T13:10:44.979Z,18.33
2023-05-14T13:13:11.964Z,18.24
2023-05-14T13:15:38.800Z,18.33
2023-05-14T13:18:05.925Z,18.26
2023-05-14T13:20:33.863Z,18.28
2023-05-14T13:23:00.834Z,18.20
2023-05-14T13:25:27.782Z,18.32
2023-05-14T13:27:55.361Z,18.30
2023-05-14T13:30:22.298Z,18.41
2023-05-14T13:32:49.957Z,18.41
2023-05-14T13:35:17.137Z,18.55
2023-05-14T13:37:44.440Z,18.63
2023-05-14T13:40:11.767Z,18.60
2023-05-14T13:42:39.953Z,18.75
2023-05-14T13:45:07.486Z,18.48
2023-05-14T13:47:34.401Z,18.24
2023-05-14T13:50:01.291Z,18.46
2023-05-14T13:52:28.162Z,18.19
2023-05-14T13:54:54.957Z,18.05
2023-05-14T13:57:22.109Z,18.22
2023-05-14T13:59:49.337Z,18.02
2023-05-14T14:02:16.299Z,18.05
2023-05-14T14:04:43.363Z,17.85
2023-05-14T14:07:10.230Z,17.84
2023-05-14T14:09:37.132Z,17.97
2023-05-14T14:12:04.705Z,18.00
2023-05-14T14:14:31.998Z,17.92
2023-05-14T14:16:58.798Z,18.05
2023-05-14T14:19:25.749Z,17.97
2023-05-14T14:21:53.221Z,18.03
2023-05-14T14:24:20.396Z,17.92
2023-05-14T14:26:47.219Z,17.86
2023-05-14T14:29:14.456Z,17.83
2023-05-14T14:31:41.432Z,17.86
2023-05-14T14:34:08.425Z,17.79
2023-05-14T14:36:35.201Z,17.82
2023-05-14T14:39:02.062Z,17.92
2023-05-14T14:41:28.962Z,17.85
2023-05-14T14:43:55.803Z,17.58
2023-05-14T14:46:22.701Z,17.60
2023-05-14T14:48:49.527Z,17.58
2023-05-14T14:51:16.381Z,17.67
2023-05-14T14:53:43.157Z,17.52
2023-05-14T14:56:10.062Z,17.73
2023-05-14T14:58:37.170Z,17.67
2023-05-14T15:01:04.130Z,17.58
2023-05-14T15:03:31.535Z,17.67
2023-05-14T15:05:58.662Z,17.47
2023-05-14T15:08:30.219Z,17.54
2023-05-14T15:10:57.200Z,17.40
2023-05-14T15:13:24.814Z,17.08
2023-05-14T15:15:52.591Z,17.21
2023-05-14T15:18:19.553Z,17.24
2023-05-14T15:20:46.474Z,17.01
2023-05-14T15:23:13.299Z,16.95
2023-05-14T15:25:40.201Z,16.99
2023-05-14T15:28:07.796Z,17.10
2023-05-14T15:30:34.820Z,17.10
2023-05-14T15:33:01.938Z,17.13
2023-05-14T15:35:28.970Z,17.04
2023-05-14T15:37:59.522Z,17.01
2023-05-14T15:40:27.859Z,17.14
2023-05-14T15:42:54.878Z,17.03
2023-05-14T15:45:21.901Z,16.90
2023-05-14T15:47:48.824Z,16.85
2023-05-14T15:50:15.848Z,16.97
2023-05-14T15:52:42.742Z,16.98
2023-05-14T15:55:10.232Z,17.02
2023-05-14T15:57:37.162Z,17.02
2023-05-14T16:00:11.183Z,16.84
2023-05-14T16:02:39.550Z,16.87
2023-05-14T16:05:07.722Z,16.92
2023-05-14T16:07:34.735Z,16.92
2023-05-14T16:10:01.540Z,16.83
2023-05-14T16:12:28.530Z,16.86
2023-05-14T16:14:57.078Z,16.86
2023-05-14T16:17:23.939Z,16.88
2023-05-14T16:19:51.144Z,16.88
2023-05-14T16:22:18.410Z,16.80
2023-05-14T16:24:45.426Z,16.84
2023-05-14T16:27:12.311Z,16.86
2023-05-14T16:29:39.274Z,16.71
2023-05-14T16:32:06.270Z,16.61
2023-05-14T16:34:33.137Z,16.60
2023-05-14T16:37:00.021Z,16.61
2023-05-14T16:39:26.826Z,16.67
2023-05-14T16:41:53.646Z,16.63
2023-05-14T16:44:20.424Z,16.74
2023-05-14T16:46:48.177Z,16.76
2023-05-14T16:49:15.206Z,16.66
2023-05-14T16:51:43.948Z,16.65
2023-05-14T16:54:11.093Z,16.58
2023-05-14T16:56:37.948Z,16.61
2023-05-14T16:59:04.785Z,16.64
2023-05-14T17:01:32.258Z,16.67
2023-05-14T17:03:59.147Z,16.71
2023-05-14T17:06:26.074Z,16.62
2023-05-14T17:08:53.019Z,16.57
2023-05-14T17:11:21.181Z,16.57
2023-05-14T17:13:48.145Z,16.54
2023-05-14T17:16:15.083Z,16.56
2023-05-14T17:18:42.166Z,16.52
2023-05-14T17:21:09.089Z,16.46
2023-05-14T17:23:35.880Z,16.49
2023-05-14T17:26:02.935Z,16.49
2023-05-14T17:28:30.126Z,16.45
2023-05-14T17:30:57.605Z,16.48
2023-05-14T17:33:24.550Z,16.53
2023-05-14T17:35:51.447Z,16.50
2023-05-14T17:38:18.263Z,16.40
2023-05-14T17:40:45.155Z,16.43
2023-05-14T17:43:12.284Z,16.49
2023-05-14T17:45:50.200Z,16.45
2023-05-14T17:48:20.528Z,16.45
2023-05-14T17:50:47.306Z,16.43
2023-05-14T17:53:14.357Z,16.45
2023-05-14T17:55:43.851Z,16.46
2023-05-14T17:58:13.480Z,16.42
2023-05-14T18:00:40.588Z,16.45
2023-05-14T18:03:10.680Z,16.43
2023-05-14T18:05:37.649Z,16.33
2023-05-14T18:08:04.624Z,16.25
2023-05-14T18:10:31.474Z,16.05
2023-05-14T18:12:58.311Z,16.08
2023-05-14T18:15:28.309Z,15.95
2023-05-14T18:17:55.189Z,16.05
2023-05-14T18:20:22.107Z,16.02
2023-05-14T18:22:50.692Z,16.09
2023-05-14T18:25:17.656Z,16.17
2023-05-14T18:27:45.406Z,16.13
2023-05-14T18:30:14.710Z,16.07
2023-05-14T18:32:44.372Z,16.00
2023-05-14T18:35:13.242Z,16.07
2023-05-14T18:37:40.166Z,16.07
2023-05-14T18:40:07.889Z,16.01
2023-05-14T18:42:35.689Z,15.97
2023-05-14T18:45:03.302Z,15.93
2023-05-14T18:47:30.376Z,16.00
2023-05-14T18:49:59.581Z,16.10
2023-05-14T18:52:26.757Z,15.96
2023-05-14T18:54:54.962Z,15.98
2023-05-14T18:57:22.476Z,15.93
2023-05-14T18:59:49.401Z,15.97
2023-05-14T19:02:16.306Z,15.76
2023-05-14T19:04:51.633Z,15.86
2023-05-14T19:07:21.033Z,15.85
2023-05-14T19:09:48.335Z,15.70
2023-05-14T19:12:15.244Z,15.71
2023-05-14T19:14:42.207Z,15.60
2023-05-14T19:17:09.088Z,15.63
2023-05-14T19:19:35.997Z,15.67
2023-05-14T19:22:03.139Z,15.62
2023-05-14T19:24:30.330Z,15.65
2023-05-14T19:26:57.363Z,15.45
2023-05-14T19:29:24.958Z,15.53
2023-05-14T19:31:51.899Z,15.60
2023-05-14T19:34:18.762Z,15.45
2023-05-14T19:36:45.688Z,15.56
2023-05-14T19:39:12.560Z,15.53
2023-05-14T19:41:39.372Z,15.50
2023-05-14T19:44:06.184Z,15.56
2023-05-14T19:46:33.172Z,15.53
2023-05-14T19:49:00.039Z,15.49
2023-05-14T19:51:26.897Z,15.58
2023-05-14T19:53:53.820Z,15.53
2023-05-14T19:56:21.687Z,15.57
2023-05-14T19:58:48.625Z,15.62
2023-05-14T20:01:15.519Z,15.46
2023-05-14T20:03:42.431Z,15.58
2023-05-14T20:06:09.278Z,15.58
2023-05-14T20:08:36.113Z,15.57
2023-05-14T20:11:03.383Z,15.55
2023-05-14T20:13:33.241Z,15.53
2023-05-14T20:16:00.326Z,15.61
2023-05-14T20:18:27.539Z,15.53
2023-05-14T20:20:54.807Z,15.47
2023-05-14T20:23:21.864Z,15.42
2023-05-14T20:25:48.824Z,15.42
2023-05-14T20:28:15.645Z,15.33
2023-05-14T20:30:42.561Z,15.40
2023-05-14T20:33:09.548Z,15.35
2023-05-14T20:35:36.567Z,15.39
2023-05-14T20:38:03.830Z,15.49
2023-05-14T20:40:32.832Z,15.40
2023-05-14T20:42:59.822Z,15.45
2023-05-14T20:45:27.205Z,15.42
2023-05-14T20:47:54.451Z,15.45
2023-05-14T20:50:22.600Z,15.30
2023-05-14T20:52:49.619Z,14.98
2023-05-14T20:55:16.587Z,15.06
2023-05-14T20:57:43.716Z,15.06
2023-05-14T21:00:11.386Z,15.13
2023-05-14T21:02:38.418Z,15.14
2023-05-14T21:05:05.932Z,15.27
2023-05-14T21:07:32.824Z,15.24
2023-05-14T21:09:59.661Z,15.22
2023-05-14T21:12:26.460Z,15.04
2023-05-14T21:14:53.223Z,15.17
2023-05-14T21:17:20.252Z,15.21
2023-05-14T21:19:47.149Z,15.04
2023-05-14T21:22:14.217Z,15.00
2023-05-14T21:24:41.370Z,14.88
2023-05-14T21:27:08.238Z,14.79
2023-05-14T21:29:35.102Z,14.98
2023-05-14T21:32:02.117Z,14.84
2023-05-14T21:34:29.864Z,14.87
2023-05-14T21:36:58.689Z,14.90
2023-05-14T21:39:25.579Z,14.97
2023-05-14T21:41:52.384Z,15.11
2023-05-14T21:44:19.257Z,15.00
2023-05-14T21:46:47.381Z,14.76
2023-05-14T21:49:14.212Z,14.87
2023-05-14T21:51:41.013Z,14.92
2023-05-14T21:54:07.849Z,14.91
2023-05-14T21:56:35.940Z,14.96
2023-05-14T21:59:02.989Z,14.95
2023-05-14T22:01:29.807Z,14.81
2023-05-14T22:03:58.030Z,14.73
2023-05-14T22:06:25.222Z,14.75
2023-05-14T22:08:51.990Z,14.76
2023-05-14T22:11:18.877Z,14.87
2023-05-14T22:13:45.712Z,14.81
2023-05-14T22:16:13.822Z,14.84
2023-05-14T22:18:41.638Z,14.72
2023-05-14T22:21:08.624Z,14.75
2023-05-14T22:23:35.515Z,14.82
2023-05-14T22:26:02.360Z,14.84
2023-05-14T22:28:29.193Z,14.91
2023-05-14T22:30:56.654Z,14.87
2023-05-14T22:33:23.620Z,14.88
2023-05-14T22:35:50.691Z,14.77
2023-05-14T22:38:17.646Z,14.83
2023-05-14T22:40:44.447Z,14.71
2023-05-14T22:43:11.211Z,14.67
2023-05-14T22:45:38.048Z,14.55
2023-05-14T22:48:04.937Z,14.60
2023-05-14T22:50:31.923Z,14.56
2023-05-14T22:52:58.769Z,14.54
2023-05-14T22:55:26.168Z,14.55
2023-05-14T22:57:53.226Z,14.46
2023-05-14T23:00:20.042Z,14.45
2023-05-14T23:02:46.958Z,14.47
2023-05-14T23:05:13.933Z,14.32
2023-05-14T23:07:40.758Z,14.27
2023-05-14T23:10:08.063Z,14.13
2023-05-14T23:12:34.921Z,14.16
2023-05-14T23:15:01.749Z,14.15
2023-05-14T23:17:28.904Z,14.13
2023-05-14T23:19:55.910Z,14.13
2023-05-14T23:22:22.787Z,14.30
2023-05-14T23:24:49.586Z,14.31
2023-05-14T23:27:16.593Z,14.33
2023-05-14T23:29:43.442Z,14.33
2023-05-14T23:32:10.515Z,14.35
2023-05-14T23:34:37.497Z,14.37
2023-05-14T23:37:04.808Z,14.22
2023-05-14T23:39:31.643Z,14.23
2023-05-14T23:41:58.471Z,14.22
2023-05-14T23:44:25.472Z,14.22
2023-05-14T23:46:52.414Z,14.15
2023-05-14T23:49:19.513Z,14.05
2023-05-14T23:51:46.297Z,14.17
2023-05-14T23:54:13.122Z,14.20
2023-05-14T23:56:40.363Z,14.05
2023-05-14T23:59:07.460Z,14.16
